sensor_id;sensor_type;location;lat;lon;timestamp;P1;durP1;ratioP1;P2;durP2;ratioP2
62796;SDS011;48839;48.546;-4.178;2023-06-22T00:00:46;7.45;;;4.15;;
62796;SDS011;48839;48.546;-4.178;2023-06-22T00:03:12;5.05;;;3.42;;
62796;SDS011;48839;48.546;-4.178;2023-06-22T00:05:38;6.57;;;4.00;;
62796;SDS011;48839;48.546;-4.178;2023-06-22T00:08:04;9.15;;;4.13;;
62796;SDS011;48839;48.546;-4.178;2023-06-22T00:10:30;6.72;;;3.90;;
62796;SDS011;48839;48.546;-4.178;2023-06-22T00:12:56;7.00;;;4.00;;
62796;SDS011;48839;48.546;-4.178;2023-06-22T00:15:22;7.90;;;3.70;;
62796;SDS011;48839;48.546;-4.178;2023-06-22T00:17:49;6.70;;;4.22;;
62796;SDS011;48839;48.546;-4.178;2023-06-22T00:20:15;7.25;;;3.67;;
62796;SDS011;48839;48.546;-4.178;2023-06-22T00:22:43;6.88;;;3.60;;
62796;SDS011;48839;48.546;-4.178;2023-06-22T00:25:09;5.38;;;3.65;;
62796;SDS011;48839;48.546;-4.178;2023-06-22T00:27:35;7.72;;;4.10;;
62796;SDS011;48839;48.546;-4.178;2023-06-22T00:30:02;9.48;;;4.63;;
62796;SDS011;48839;48.546;-4.178;2023-06-22T00:32:28;7.05;;;4.30;;
62796;SDS011;48839;48.546;-4.178;2023-06-22T00:34:54;7.03;;;4.20;;
62796;SDS011;48839;48.546;-4.178;2023-06-22T00:37:20;5.28;;;3.33;;
62796;SDS011;48839;48.546;-4.178;2023-06-22T00:39:50;6.60;;;3.17;;
62796;SDS011;48839;48.546;-4.178;2023-06-22T00:42:16;4.95;;;3.10;;
62796;SDS011;48839;48.546;-4.178;2023-06-22T00:44:42;6.75;;;3.40;;
62796;SDS011;48839;48.546;-4.178;2023-06-22T00:47:10;5.35;;;3.40;;
62796;SDS011;48839;48.546;-4.178;2023-06-22T00:49:37;3.72;;;2.70;;
62796;SDS011;48839;48.546;-4.178;2023-06-22T00:52:04;4.63;;;3.10;;
62796;SDS011;48839;48.546;-4.178;2023-06-22T00:54:34;4.00;;;2.83;;
62796;SDS011;48839;48.546;-4.178;2023-06-22T00:57:01;8.07;;;4.80;;
62796;SDS011;48839;48.546;-4.178;2023-06-22T00:59:27;6.65;;;3.90;;
62796;SDS011;48839;48.546;-4.178;2023-06-22T01:01:53;5.60;;;3.20;;
62796;SDS011;48839;48.546;-4.178;2023-06-22T01:04:21;4.68;;;3.22;;
62796;SDS011;48839;48.546;-4.178;2023-06-22T01:06:52;5.65;;;3.88;;
62796;SDS011;48839;48.546;-4.178;2023-06-22T01:09:22;4.88;;;3.33;;
62796;SDS011;48839;48.546;-4.178;2023-06-22T01:11:56;7.28;;;4.10;;
62796;SDS011;48839;48.546;-4.178;2023-06-22T01:16:49;4.45;;;3.38;;
62796;SDS011;48839;48.546;-4.178;2023-06-22T01:22:02;7.45;;;4.38;;
62796;SDS011;48839;48.546;-4.178;2023-06-22T01:29:30;3.88;;;2.50;;
62796;SDS011;48839;48.546;-4.178;2023-06-22T01:31:57;4.45;;;2.78;;
62796;SDS011;48839;48.546;-4.178;2023-06-22T01:34:24;3.78;;;2.38;;
62796;SDS011;48839;48.546;-4.178;2023-06-22T01:36:51;3.97;;;2.95;;
62796;SDS011;48839;48.546;-4.178;2023-06-22T01:39:18;5.15;;;3.17;;
62796;SDS011;48839;48.546;-4.178;2023-06-22T01:41:44;6.55;;;2.97;;
62796;SDS011;48839;48.546;-4.178;2023-06-22T01:44:10;4.78;;;3.10;;
62796;SDS011;48839;48.546;-4.178;2023-06-22T01:46:36;8.02;;;4.60;;
62796;SDS011;48839;48.546;-4.178;2023-06-22T01:49:03;6.53;;;3.92;;
62796;SDS011;48839;48.546;-4.178;2023-06-22T01:51:30;7.05;;;4.32;;
62796;SDS011;48839;48.546;-4.178;2023-06-22T01:53:56;6.30;;;4.38;;
62796;SDS011;48839;48.546;-4.178;2023-06-22T01:56:22;6.72;;;4.60;;
62796;SDS011;48839;48.546;-4.178;2023-06-22T01:58:50;8.75;;;5.45;;
62796;SDS011;48839;48.546;-4.178;2023-06-22T02:01:17;6.85;;;4.10;;
62796;SDS011;48839;48.546;-4.178;2023-06-22T02:04:31;7.03;;;4.13;;
62796;SDS011;48839;48.546;-4.178;2023-06-22T02:06:36;5.30;;;3.42;;
62796;SDS011;48839;48.546;-4.178;2023-06-22T02:09:06;5.22;;;3.40;;
62796;SDS011;48839;48.546;-4.178;2023-06-22T02:11:33;6.18;;;3.13;;
62796;SDS011;48839;48.546;-4.178;2023-06-22T02:14:00;8.27;;;3.80;;
62796;SDS011;48839;48.546;-4.178;2023-06-22T02:16:26;9.70;;;4.30;;
62796;SDS011;48839;48.546;-4.178;2023-06-22T02:18:56;11.65;;;3.70;;
62796;SDS011;48839;48.546;-4.178;2023-06-22T02:21:28;10.75;;;3.80;;
62796;SDS011;48839;48.546;-4.178;2023-06-22T02:23:54;8.98;;;3.95;;
62796;SDS011;48839;48.546;-4.178;2023-06-22T02:26:20;12.13;;;4.43;;
62796;SDS011;48839;48.546;-4.178;2023-06-22T02:28:46;14.05;;;4.63;;
62796;SDS011;48839;48.546;-4.178;2023-06-22T02:31:12;9.45;;;4.80;;
62796;SDS011;48839;48.546;-4.178;2023-06-22T02:33:38;11.73;;;5.18;;
62796;SDS011;48839;48.546;-4.178;2023-06-22T02:36:04;6.97;;;4.05;;
62796;SDS011;48839;48.546;-4.178;2023-06-22T02:38:34;8.35;;;4.32;;
62796;SDS011;48839;48.546;-4.178;2023-06-22T02:41:01;8.95;;;5.15;;
62796;SDS011;48839;48.546;-4.178;2023-06-22T02:43:27;7.65;;;4.43;;
62796;SDS011;48839;48.546;-4.178;2023-06-22T02:45:53;8.70;;;4.90;;
62796;SDS011;48839;48.546;-4.178;2023-06-22T02:48:19;13.00;;;4.15;;
62796;SDS011;48839;48.546;-4.178;2023-06-22T02:50:45;5.93;;;3.53;;
62796;SDS011;48839;48.546;-4.178;2023-06-22T02:53:11;11.40;;;3.85;;
62796;SDS011;48839;48.546;-4.178;2023-06-22T02:55:37;8.65;;;3.70;;
62796;SDS011;48839;48.546;-4.178;2023-06-22T02:58:04;6.40;;;3.75;;
62796;SDS011;48839;48.546;-4.178;2023-06-22T03:00:32;12.38;;;3.75;;
62796;SDS011;48839;48.546;-4.178;2023-06-22T03:02:58;7.75;;;3.42;;
62796;SDS011;48839;48.546;-4.178;2023-06-22T03:05:24;7.38;;;3.85;;
62796;SDS011;48839;48.546;-4.178;2023-06-22T03:07:51;10.57;;;4.43;;
62796;SDS011;48839;48.546;-4.178;2023-06-22T03:10:17;4.45;;;2.88;;
62796;SDS011;48839;48.546;-4.178;2023-06-22T03:12:43;6.18;;;3.40;;
62796;SDS011;48839;48.546;-4.178;2023-06-22T03:15:10;8.13;;;3.58;;
62796;SDS011;48839;48.546;-4.178;2023-06-22T03:17:37;7.47;;;3.35;;
62796;SDS011;48839;48.546;-4.178;2023-06-22T03:20:06;5.85;;;3.70;;
62796;SDS011;48839;48.546;-4.178;2023-06-22T03:22:37;6.40;;;3.70;;
62796;SDS011;48839;48.546;-4.178;2023-06-22T03:25:03;7.65;;;3.92;;
62796;SDS011;48839;48.546;-4.178;2023-06-22T03:27:29;8.57;;;4.10;;
62796;SDS011;48839;48.546;-4.178;2023-06-22T03:29:56;14.05;;;5.38;;
62796;SDS011;48839;48.546;-4.178;2023-06-22T03:32:22;7.30;;;4.45;;
62796;SDS011;48839;48.546;-4.178;2023-06-22T03:34:49;6.85;;;4.32;;
62796;SDS011;48839;48.546;-4.178;2023-06-22T03:37:15;10.20;;;4.68;;
62796;SDS011;48839;48.546;-4.178;2023-06-22T03:39:41;8.55;;;4.55;;
62796;SDS011;48839;48.546;-4.178;2023-06-22T03:42:07;9.38;;;4.43;;
62796;SDS011;48839;48.546;-4.178;2023-06-22T03:44:33;13.07;;;5.15;;
62796;SDS011;48839;48.546;-4.178;2023-06-22T03:47:01;11.18;;;4.32;;
62796;SDS011;48839;48.546;-4.178;2023-06-22T03:49:27;9.35;;;4.82;;
62796;SDS011;48839;48.546;-4.178;2023-06-22T03:51:53;9.02;;;4.70;;
62796;SDS011;48839;48.546;-4.178;2023-06-22T03:54:19;8.07;;;4.88;;
62796;SDS011;48839;48.546;-4.178;2023-06-22T03:56:45;10.50;;;4.60;;
62796;SDS011;48839;48.546;-4.178;2023-06-22T03:59:11;9.63;;;4.93;;
62796;SDS011;48839;48.546;-4.178;2023-06-22T04:01:37;9.88;;;4.30;;
62796;SDS011;48839;48.546;-4.178;2023-06-22T04:04:03;14.05;;;4.40;;
62796;SDS011;48839;48.546;-4.178;2023-06-22T04:06:29;7.82;;;4.07;;
62796;SDS011;48839;48.546;-4.178;2023-06-22T04:08:55;14.90;;;4.57;;
62796;SDS011;48839;48.546;-4.178;2023-06-22T04:11:21;8.57;;;3.92;;
62796;SDS011;48839;48.546;-4.178;2023-06-22T04:13:47;8.77;;;4.45;;
62796;SDS011;48839;48.546;-4.178;2023-06-22T04:16:14;7.43;;;4.07;;
62796;SDS011;48839;48.546;-4.178;2023-06-22T04:18:40;8.80;;;4.47;;
62796;SDS011;48839;48.546;-4.178;2023-06-22T04:21:06;13.80;;;3.80;;
62796;SDS011;48839;48.546;-4.178;2023-06-22T04:23:33;13.85;;;4.70;;
62796;SDS011;48839;48.546;-4.178;2023-06-22T04:25:59;15.05;;;4.72;;
62796;SDS011;48839;48.546;-4.178;2023-06-22T04:28:25;10.80;;;4.72;;
62796;SDS011;48839;48.546;-4.178;2023-06-22T04:30:51;5.78;;;3.55;;
62796;SDS011;48839;48.546;-4.178;2023-06-22T04:33:17;12.02;;;4.88;;
62796;SDS011;48839;48.546;-4.178;2023-06-22T04:35:46;10.43;;;4.30;;
62796;SDS011;48839;48.546;-4.178;2023-06-22T04:38:12;8.15;;;4.00;;
62796;SDS011;48839;48.546;-4.178;2023-06-22T04:40:39;6.82;;;3.58;;
62796;SDS011;48839;48.546;-4.178;2023-06-22T04:43:05;14.43;;;4.10;;
62796;SDS011;48839;48.546;-4.178;2023-06-22T04:45:34;14.60;;;4.20;;
62796;SDS011;48839;48.546;-4.178;2023-06-22T04:48:03;11.93;;;3.63;;
62796;SDS011;48839;48.546;-4.178;2023-06-22T04:50:29;8.40;;;3.20;;
62796;SDS011;48839;48.546;-4.178;2023-06-22T04:52:55;10.57;;;3.45;;
62796;SDS011;48839;48.546;-4.178;2023-06-22T04:55:21;8.38;;;3.03;;
62796;SDS011;48839;48.546;-4.178;2023-06-22T04:57:47;7.38;;;3.17;;
62796;SDS011;48839;48.546;-4.178;2023-06-22T05:00:22;9.80;;;3.80;;
62796;SDS011;48839;48.546;-4.178;2023-06-22T05:02:49;7.07;;;3.28;;
62796;SDS011;48839;48.546;-4.178;2023-06-22T05:05:15;16.92;;;3.30;;
62796;SDS011;48839;48.546;-4.178;2023-06-22T05:07:45;7.40;;;3.40;;
62796;SDS011;48839;48.546;-4.178;2023-06-22T05:10:13;19.63;;;4.50;;
62796;SDS011;48839;48.546;-4.178;2023-06-22T05:12:40;6.93;;;2.42;;
62796;SDS011;48839;48.546;-4.178;2023-06-22T05:15:09;3.65;;;2.20;;
62796;SDS011;48839;48.546;-4.178;2023-06-22T05:17:35;4.72;;;2.20;;
62796;SDS011;48839;48.546;-4.178;2023-06-22T05:20:06;3.83;;;1.83;;
62796;SDS011;48839;48.546;-4.178;2023-06-22T05:22:33;9.43;;;2.38;;
62796;SDS011;48839;48.546;-4.178;2023-06-22T05:24:59;7.65;;;2.85;;
62796;SDS011;48839;48.546;-4.178;2023-06-22T05:27:25;4.57;;;1.95;;
62796;SDS011;48839;48.546;-4.178;2023-06-22T05:29:51;3.05;;;2.00;;
62796;SDS011;48839;48.546;-4.178;2023-06-22T05:32:17;3.33;;;1.30;;
62796;SDS011;48839;48.546;-4.178;2023-06-22T05:34:43;7.22;;;2.55;;
62796;SDS011;48839;48.546;-4.178;2023-06-22T05:37:10;6.03;;;2.08;;
62796;SDS011;48839;48.546;-4.178;2023-06-22T05:39:37;3.88;;;2.70;;
62796;SDS011;48839;48.546;-4.178;2023-06-22T05:42:07;6.30;;;2.38;;
62796;SDS011;48839;48.546;-4.178;2023-06-22T05:44:33;5.32;;;2.08;;
62796;SDS011;48839;48.546;-4.178;2023-06-22T05:46:59;4.32;;;1.98;;
62796;SDS011;48839;48.546;-4.178;2023-06-22T05:49:25;8.38;;;2.00;;
62796;SDS011;48839;48.546;-4.178;2023-06-22T05:51:57;5.78;;;2.10;;
62796;SDS011;48839;48.546;-4.178;2023-06-22T05:54:23;7.32;;;2.60;;
62796;SDS011;48839;48.546;-4.178;2023-06-22T05:56:49;11.48;;;3.80;;
62796;SDS011;48839;48.546;-4.178;2023-06-22T05:59:16;10.25;;;3.00;;
62796;SDS011;48839;48.546;-4.178;2023-06-22T06:01:42;9.27;;;3.60;;
62796;SDS011;48839;48.546;-4.178;2023-06-22T06:04:08;10.02;;;3.45;;
62796;SDS011;48839;48.546;-4.178;2023-06-22T06:06:34;12.52;;;4.18;;
62796;SDS011;48839;48.546;-4.178;2023-06-22T06:09:02;10.10;;;3.85;;
62796;SDS011;48839;48.546;-4.178;2023-06-22T06:11:28;10.85;;;4.03;;
62796;SDS011;48839;48.546;-4.178;2023-06-22T06:13:54;13.85;;;5.78;;
62796;SDS011;48839;48.546;-4.178;2023-06-22T06:16:20;14.02;;;5.28;;
62796;SDS011;48839;48.546;-4.178;2023-06-22T06:18:46;10.77;;;4.18;;
62796;SDS011;48839;48.546;-4.178;2023-06-22T06:21:14;14.40;;;4.95;;
62796;SDS011;48839;48.546;-4.178;2023-06-22T06:23:40;14.90;;;5.28;;
62796;SDS011;48839;48.546;-4.178;2023-06-22T06:26:07;18.83;;;6.10;;
62796;SDS011;48839;48.546;-4.178;2023-06-22T06:28:33;19.73;;;6.93;;
62796;SDS011;48839;48.546;-4.178;2023-06-22T06:30:59;16.80;;;6.50;;
62796;SDS011;48839;48.546;-4.178;2023-06-22T06:33:25;15.93;;;6.50;;
62796;SDS011;48839;48.546;-4.178;2023-06-22T06:35:51;13.50;;;5.53;;
62796;SDS011;48839;48.546;-4.178;2023-06-22T06:38:17;14.95;;;6.60;;
62796;SDS011;48839;48.546;-4.178;2023-06-22T06:40:43;10.98;;;5.80;;
62796;SDS011;48839;48.546;-4.178;2023-06-22T06:43:10;13.45;;;6.13;;
62796;SDS011;48839;48.546;-4.178;2023-06-22T06:45:36;14.13;;;6.93;;
62796;SDS011;48839;48.546;-4.178;2023-06-22T06:48:02;14.43;;;6.38;;
62796;SDS011;48839;48.546;-4.178;2023-06-22T06:50:28;11.35;;;5.57;;
62796;SDS011;48839;48.546;-4.178;2023-06-22T06:52:54;12.13;;;6.18;;
62796;SDS011;48839;48.546;-4.178;2023-06-22T06:55:21;12.82;;;5.90;;
62796;SDS011;48839;48.546;-4.178;2023-06-22T06:57:50;12.60;;;6.47;;
62796;SDS011;48839;48.546;-4.178;2023-06-22T07:00:17;13.63;;;6.95;;
62796;SDS011;48839;48.546;-4.178;2023-06-22T07:02:44;10.25;;;6.47;;
62796;SDS011;48839;48.546;-4.178;2023-06-22T07:05:11;10.68;;;6.15;;
62796;SDS011;48839;48.546;-4.178;2023-06-22T07:07:38;8.23;;;5.15;;
62796;SDS011;48839;48.546;-4.178;2023-06-22T07:10:04;9.02;;;5.55;;
62796;SDS011;48839;48.546;-4.178;2023-06-22T07:12:30;9.05;;;5.30;;
62796;SDS011;48839;48.546;-4.178;2023-06-22T07:17:29;9.15;;;5.32;;
62796;SDS011;48839;48.546;-4.178;2023-06-22T07:19:55;6.93;;;4.85;;
62796;SDS011;48839;48.546;-4.178;2023-06-22T07:22:21;7.63;;;4.38;;
62796;SDS011;48839;48.546;-4.178;2023-06-22T07:24:47;4.82;;;3.38;;
62796;SDS011;48839;48.546;-4.178;2023-06-22T07:27:14;6.95;;;4.22;;
62796;SDS011;48839;48.546;-4.178;2023-06-22T07:29:43;6.03;;;3.80;;
62796;SDS011;48839;48.546;-4.178;2023-06-22T07:32:09;4.22;;;3.13;;
62796;SDS011;48839;48.546;-4.178;2023-06-22T07:34:35;5.93;;;3.17;;
62796;SDS011;48839;48.546;-4.178;2023-06-22T07:37:01;3.13;;;2.53;;
62796;SDS011;48839;48.546;-4.178;2023-06-22T07:39:27;5.07;;;3.22;;
62796;SDS011;48839;48.546;-4.178;2023-06-22T07:41:53;4.90;;;3.30;;
62796;SDS011;48839;48.546;-4.178;2023-06-22T07:44:19;7.43;;;3.90;;
62796;SDS011;48839;48.546;-4.178;2023-06-22T07:46:45;4.28;;;3.22;;
62796;SDS011;48839;48.546;-4.178;2023-06-22T07:49:11;7.30;;;3.63;;
62796;SDS011;48839;48.546;-4.178;2023-06-22T07:51:37;5.47;;;3.47;;
62796;SDS011;48839;48.546;-4.178;2023-06-22T07:54:03;4.72;;;3.25;;
62796;SDS011;48839;48.546;-4.178;2023-06-22T07:56:29;5.82;;;3.83;;
62796;SDS011;48839;48.546;-4.178;2023-06-22T07:58:55;8.15;;;4.32;;
62796;SDS011;48839;48.546;-4.178;2023-06-22T08:01:24;4.05;;;3.28;;
62796;SDS011;48839;48.546;-4.178;2023-06-22T08:03:50;6.45;;;3.00;;
62796;SDS011;48839;48.546;-4.178;2023-06-22T08:06:16;4.82;;;2.63;;
62796;SDS011;48839;48.546;-4.178;2023-06-22T08:08:42;3.20;;;2.33;;
62796;SDS011;48839;48.546;-4.178;2023-06-22T08:11:08;4.88;;;3.35;;
62796;SDS011;48839;48.546;-4.178;2023-06-22T08:13:34;5.47;;;3.42;;
62796;SDS011;48839;48.546;-4.178;2023-06-22T08:16:00;5.68;;;3.17;;
62796;SDS011;48839;48.546;-4.178;2023-06-22T08:18:27;2.42;;;2.20;;
62796;SDS011;48839;48.546;-4.178;2023-06-22T08:20:53;3.60;;;2.42;;
62796;SDS011;48839;48.546;-4.178;2023-06-22T08:23:19;3.00;;;2.50;;
62796;SDS011;48839;48.546;-4.178;2023-06-22T08:25:45;2.03;;;1.85;;
62796;SDS011;48839;48.546;-4.178;2023-06-22T08:28:11;2.63;;;1.90;;
62796;SDS011;48839;48.546;-4.178;2023-06-22T08:30:38;2.65;;;1.83;;
62796;SDS011;48839;48.546;-4.178;2023-06-22T08:33:04;2.50;;;2.30;;
62796;SDS011;48839;48.546;-4.178;2023-06-22T08:35:30;3.00;;;2.45;;
62796;SDS011;48839;48.546;-4.178;2023-06-22T08:37:56;2.10;;;1.90;;
62796;SDS011;48839;48.546;-4.178;2023-06-22T08:40:23;3.42;;;1.90;;
62796;SDS011;48839;48.546;-4.178;2023-06-22T08:42:49;3.45;;;1.83;;
62796;SDS011;48839;48.546;-4.178;2023-06-22T08:45:15;2.72;;;1.90;;
62796;SDS011;48839;48.546;-4.178;2023-06-22T08:47:41;6.35;;;2.13;;
62796;SDS011;48839;48.546;-4.178;2023-06-22T08:50:08;2.45;;;1.98;;
62796;SDS011;48839;48.546;-4.178;2023-06-22T08:52:34;2.42;;;2.03;;
62796;SDS011;48839;48.546;-4.178;2023-06-22T08:55:01;2.13;;;1.80;;
62796;SDS011;48839;48.546;-4.178;2023-06-22T08:57:27;2.42;;;2.20;;
62796;SDS011;48839;48.546;-4.178;2023-06-22T08:59:53;1.95;;;1.50;;
62796;SDS011;48839;48.546;-4.178;2023-06-22T09:02:23;4.10;;;2.22;;
62796;SDS011;48839;48.546;-4.178;2023-06-22T09:04:49;2.00;;;1.60;;
62796;SDS011;48839;48.546;-4.178;2023-06-22T09:07:20;2.60;;;1.58;;
62796;SDS011;48839;48.546;-4.178;2023-06-22T09:09:47;2.67;;;1.80;;
62796;SDS011;48839;48.546;-4.178;2023-06-22T09:12:13;2.35;;;1.65;;
62796;SDS011;48839;48.546;-4.178;2023-06-22T09:14:39;3.63;;;1.63;;
62796;SDS011;48839;48.546;-4.178;2023-06-22T09:17:05;1.73;;;1.40;;
62796;SDS011;48839;48.546;-4.178;2023-06-22T09:19:31;3.58;;;1.50;;
62796;SDS011;48839;48.546;-4.178;2023-06-22T09:21:57;2.60;;;1.60;;
62796;SDS011;48839;48.546;-4.178;2023-06-22T09:24:25;1.50;;;1.40;;
62796;SDS011;48839;48.546;-4.178;2023-06-22T09:26:51;4.38;;;1.90;;
62796;SDS011;48839;48.546;-4.178;2023-06-22T09:29:17;2.75;;;1.60;;
62796;SDS011;48839;48.546;-4.178;2023-06-22T09:31:43;2.38;;;1.88;;
62796;SDS011;48839;48.546;-4.178;2023-06-22T09:34:09;2.45;;;1.98;;
62796;SDS011;48839;48.546;-4.178;2023-06-22T09:36:35;1.60;;;1.45;;
62796;SDS011;48839;48.546;-4.178;2023-06-22T09:39:02;2.33;;;1.90;;
62796;SDS011;48839;48.546;-4.178;2023-06-22T09:41:31;4.93;;;2.50;;
62796;SDS011;48839;48.546;-4.178;2023-06-22T09:43:57;2.83;;;2.20;;
62796;SDS011;48839;48.546;-4.178;2023-06-22T09:46:23;4.03;;;1.90;;
62796;SDS011;48839;48.546;-4.178;2023-06-22T09:48:53;2.88;;;1.95;;
62796;SDS011;48839;48.546;-4.178;2023-06-22T09:51:19;2.97;;;2.33;;
62796;SDS011;48839;48.546;-4.178;2023-06-22T09:53:46;3.08;;;1.95;;
62796;SDS011;48839;48.546;-4.178;2023-06-22T09:56:13;2.40;;;2.20;;
62796;SDS011;48839;48.546;-4.178;2023-06-22T09:58:42;3.00;;;1.95;;
62796;SDS011;48839;48.546;-4.178;2023-06-22T10:01:08;3.00;;;2.35;;
62796;SDS011;48839;48.546;-4.178;2023-06-22T10:03:39;2.25;;;1.95;;
62796;SDS011;48839;48.546;-4.178;2023-06-22T10:06:06;2.75;;;2.20;;
62796;SDS011;48839;48.546;-4.178;2023-06-22T10:08:32;4.20;;;2.33;;
62796;SDS011;48839;48.546;-4.178;2023-06-22T10:10:58;2.83;;;2.17;;
62796;SDS011;48839;48.546;-4.178;2023-06-22T10:13:24;3.67;;;1.90;;
62796;SDS011;48839;48.546;-4.178;2023-06-22T10:15:50;2.15;;;1.85;;
62796;SDS011;48839;48.546;-4.178;2023-06-22T10:18:20;2.33;;;1.85;;
62796;SDS011;48839;48.546;-4.178;2023-06-22T10:20:49;4.72;;;1.98;;
62796;SDS011;48839;48.546;-4.178;2023-06-22T10:23:19;3.17;;;2.10;;
62796;SDS011;48839;48.546;-4.178;2023-06-22T10:25:45;2.05;;;1.60;;
62796;SDS011;48839;48.546;-4.178;2023-06-22T10:28:11;2.95;;;1.98;;
62796;SDS011;48839;48.546;-4.178;2023-06-22T10:30:38;3.55;;;2.30;;
62796;SDS011;48839;48.546;-4.178;2023-06-22T10:33:06;2.45;;;1.83;;
62796;SDS011;48839;48.546;-4.178;2023-06-22T10:35:32;4.00;;;2.13;;
62796;SDS011;48839;48.546;-4.178;2023-06-22T10:37:58;2.13;;;1.92;;
62796;SDS011;48839;48.546;-4.178;2023-06-22T10:40:25;2.38;;;1.42;;
62796;SDS011;48839;48.546;-4.178;2023-06-22T10:42:51;2.38;;;1.98;;
62796;SDS011;48839;48.546;-4.178;2023-06-22T10:45:17;2.30;;;1.80;;
62796;SDS011;48839;48.546;-4.178;2023-06-22T10:47:43;2.75;;;1.67;;
62796;SDS011;48839;48.546;-4.178;2023-06-22T10:50:09;2.25;;;1.95;;
62796;SDS011;48839;48.546;-4.178;2023-06-22T10:52:35;4.38;;;2.03;;
62796;SDS011;48839;48.546;-4.178;2023-06-22T10:55:01;2.47;;;1.70;;
62796;SDS011;48839;48.546;-4.178;2023-06-22T10:57:27;2.10;;;1.90;;
62796;SDS011;48839;48.546;-4.178;2023-06-22T10:59:53;2.30;;;1.80;;
62796;SDS011;48839;48.546;-4.178;2023-06-22T11:02:19;1.63;;;1.40;;
62796;SDS011;48839;48.546;-4.178;2023-06-22T11:04:45;2.05;;;1.73;;
62796;SDS011;48839;48.546;-4.178;2023-06-22T11:07:12;3.08;;;2.15;;
62796;SDS011;48839;48.546;-4.178;2023-06-22T11:09:38;2.63;;;1.88;;
62796;SDS011;48839;48.546;-4.178;2023-06-22T11:12:04;2.15;;;1.70;;
62796;SDS011;48839;48.546;-4.178;2023-06-22T11:14:31;3.15;;;1.58;;
62796;SDS011;48839;48.546;-4.178;2023-06-22T11:16:58;2.05;;;1.60;;
62796;SDS011;48839;48.546;-4.178;2023-06-22T11:19:24;1.50;;;1.38;;
62796;SDS011;48839;48.546;-4.178;2023-06-22T11:21:50;1.80;;;1.55;;
62796;SDS011;48839;48.546;-4.178;2023-06-22T11:24:17;2.25;;;1.75;;
62796;SDS011;48839;48.546;-4.178;2023-06-22T11:26:43;2.03;;;1.50;;
62796;SDS011;48839;48.546;-4.178;2023-06-22T11:29:09;2.45;;;1.80;;
62796;SDS011;48839;48.546;-4.178;2023-06-22T11:31:35;2.97;;;1.42;;
62796;SDS011;48839;48.546;-4.178;2023-06-22T11:34:01;1.80;;;1.70;;
62796;SDS011;48839;48.546;-4.178;2023-06-22T11:36:29;2.33;;;1.50;;
62796;SDS011;48839;48.546;-4.178;2023-06-22T11:38:58;3.55;;;1.88;;
62796;SDS011;48839;48.546;-4.178;2023-06-22T11:41:24;1.92;;;1.25;;
62796;SDS011;48839;48.546;-4.178;2023-06-22T11:43:50;2.50;;;1.73;;
62796;SDS011;48839;48.546;-4.178;2023-06-22T11:46:16;2.20;;;2.00;;
62796;SDS011;48839;48.546;-4.178;2023-06-22T11:48:42;2.40;;;1.75;;
62796;SDS011;48839;48.546;-4.178;2023-06-22T11:51:08;2.40;;;1.85;;
62796;SDS011;48839;48.546;-4.178;2023-06-22T11:53:34;3.80;;;1.90;;
62796;SDS011;48839;48.546;-4.178;2023-06-22T11:56:00;3.92;;;2.10;;
62796;SDS011;48839;48.546;-4.178;2023-06-22T11:58:27;2.47;;;1.60;;
62796;SDS011;48839;48.546;-4.178;2023-06-22T12:00:53;3.38;;;1.52;;
62796;SDS011;48839;48.546;-4.178;2023-06-22T12:03:19;1.77;;;1.27;;
62796;SDS011;48839;48.546;-4.178;2023-06-22T12:05:46;2.70;;;1.50;;
62796;SDS011;48839;48.546;-4.178;2023-06-22T12:08:12;3.78;;;1.60;;
62796;SDS011;48839;48.546;-4.178;2023-06-22T12:10:38;2.47;;;1.58;;
62796;SDS011;48839;48.546;-4.178;2023-06-22T12:13:04;3.67;;;1.77;;
62796;SDS011;48839;48.546;-4.178;2023-06-22T12:15:30;2.78;;;1.50;;
62796;SDS011;48839;48.546;-4.178;2023-06-22T12:17:56;1.60;;;1.50;;
62796;SDS011;48839;48.546;-4.178;2023-06-22T12:20:22;2.65;;;1.67;;
62796;SDS011;48839;48.546;-4.178;2023-06-22T12:22:48;3.20;;;1.70;;
62796;SDS011;48839;48.546;-4.178;2023-06-22T12:25:16;2.80;;;1.40;;
62796;SDS011;48839;48.546;-4.178;2023-06-22T12:27:42;2.65;;;1.40;;
62796;SDS011;48839;48.546;-4.178;2023-06-22T12:30:08;1.92;;;1.60;;
62796;SDS011;48839;48.546;-4.178;2023-06-22T12:32:35;1.10;;;1.00;;
62796;SDS011;48839;48.546;-4.178;2023-06-22T12:35:01;1.60;;;1.40;;
62796;SDS011;48839;48.546;-4.178;2023-06-22T12:37:27;3.42;;;1.60;;
62796;SDS011;48839;48.546;-4.178;2023-06-22T12:39:54;2.38;;;1.70;;
62796;SDS011;48839;48.546;-4.178;2023-06-22T12:42:20;2.53;;;1.48;;
62796;SDS011;48839;48.546;-4.178;2023-06-22T12:44:46;1.48;;;1.38;;
62796;SDS011;48839;48.546;-4.178;2023-06-22T12:47:12;1.75;;;1.40;;
62796;SDS011;48839;48.546;-4.178;2023-06-22T12:49:38;1.65;;;1.30;;
62796;SDS011;48839;48.546;-4.178;2023-06-22T12:52:13;2.40;;;1.30;;
62796;SDS011;48839;48.546;-4.178;2023-06-22T12:54:39;2.15;;;1.60;;
62796;SDS011;48839;48.546;-4.178;2023-06-22T12:57:05;2.92;;;1.50;;
62796;SDS011;48839;48.546;-4.178;2023-06-22T12:59:31;1.85;;;1.73;;
62796;SDS011;48839;48.546;-4.178;2023-06-22T13:01:57;2.45;;;1.38;;
62796;SDS011;48839;48.546;-4.178;2023-06-22T13:04:23;4.18;;;1.42;;
62796;SDS011;48839;48.546;-4.178;2023-06-22T13:06:49;3.60;;;1.52;;
62796;SDS011;48839;48.546;-4.178;2023-06-22T13:09:17;1.40;;;1.30;;
62796;SDS011;48839;48.546;-4.178;2023-06-22T13:11:43;2.97;;;1.30;;
62796;SDS011;48839;48.546;-4.178;2023-06-22T13:14:09;2.40;;;1.52;;
62796;SDS011;48839;48.546;-4.178;2023-06-22T13:16:35;2.08;;;1.30;;
62796;SDS011;48839;48.546;-4.178;2023-06-22T13:19:01;2.88;;;1.52;;
62796;SDS011;48839;48.546;-4.178;2023-06-22T13:21:27;1.58;;;1.48;;
62796;SDS011;48839;48.546;-4.178;2023-06-22T13:23:53;2.40;;;1.35;;
62796;SDS011;48839;48.546;-4.178;2023-06-22T13:26:20;2.63;;;1.30;;
62796;SDS011;48839;48.546;-4.178;2023-06-22T13:28:47;1.48;;;1.25;;
62796;SDS011;48839;48.546;-4.178;2023-06-22T13:31:13;3.15;;;1.20;;
62796;SDS011;48839;48.546;-4.178;2023-06-22T13:33:39;3.17;;;1.40;;
62796;SDS011;48839;48.546;-4.178;2023-06-22T13:36:05;4.72;;;1.50;;
62796;SDS011;48839;48.546;-4.178;2023-06-22T13:38:32;3.47;;;1.50;;
62796;SDS011;48839;48.546;-4.178;2023-06-22T13:40:58;1.58;;;1.48;;
62796;SDS011;48839;48.546;-4.178;2023-06-22T13:43:26;1.83;;;1.52;;
62796;SDS011;48839;48.546;-4.178;2023-06-22T13:45:52;2.42;;;1.25;;
62796;SDS011;48839;48.546;-4.178;2023-06-22T13:48:18;2.42;;;1.25;;
62796;SDS011;48839;48.546;-4.178;2023-06-22T13:50:44;1.33;;;1.20;;
62796;SDS011;48839;48.546;-4.178;2023-06-22T13:53:11;1.45;;;1.35;;
62796;SDS011;48839;48.546;-4.178;2023-06-22T13:55:37;2.17;;;1.20;;
62796;SDS011;48839;48.546;-4.178;2023-06-22T13:58:02;1.67;;;1.40;;
62796;SDS011;48839;48.546;-4.178;2023-06-22T14:00:28;1.92;;;1.48;;
62796;SDS011;48839;48.546;-4.178;2023-06-22T14:02:54;3.40;;;1.35;;
62796;SDS011;48839;48.546;-4.178;2023-06-22T14:05:21;2.35;;;1.77;;
62796;SDS011;48839;48.546;-4.178;2023-06-22T14:07:47;4.78;;;1.70;;
62796;SDS011;48839;48.546;-4.178;2023-06-22T14:10:13;3.65;;;1.80;;
62796;SDS011;48839;48.546;-4.178;2023-06-22T14:12:39;1.27;;;1.17;;
62796;SDS011;48839;48.546;-4.178;2023-06-22T14:15:05;2.80;;;1.70;;
62796;SDS011;48839;48.546;-4.178;2023-06-22T14:17:31;1.65;;;1.55;;
62796;SDS011;48839;48.546;-4.178;2023-06-22T14:19:57;1.60;;;1.40;;
62796;SDS011;48839;48.546;-4.178;2023-06-22T14:22:23;1.35;;;1.13;;
62796;SDS011;48839;48.546;-4.178;2023-06-22T14:24:50;1.75;;;1.20;;
62796;SDS011;48839;48.546;-4.178;2023-06-22T14:27:16;1.75;;;1.60;;
62796;SDS011;48839;48.546;-4.178;2023-06-22T14:29:42;1.30;;;1.20;;
62796;SDS011;48839;48.546;-4.178;2023-06-22T14:32:08;1.85;;;1.38;;
62796;SDS011;48839;48.546;-4.178;2023-06-22T14:34:35;1.88;;;1.42;;
62796;SDS011;48839;48.546;-4.178;2023-06-22T14:37:04;2.20;;;1.60;;
62796;SDS011;48839;48.546;-4.178;2023-06-22T14:39:30;3.03;;;1.45;;
62796;SDS011;48839;48.546;-4.178;2023-06-22T14:41:56;1.45;;;1.33;;